Map

Track Data

SID SEASON NUMBER BASIN SUBBASIN NAME ISO_TIME NATURE LAT LON WMO_WIND WMO_PRES WMO_AGENCY TRACK_TYPE DIST2LAND LANDFALL IFLAG USA_AGENCY USA_ATCF_ID USA_LAT USA_LON USA_RECORD USA_STATUS USA_WIND USA_PRES USA_SSHS USA_R34_NE USA_R34_SE USA_R34_SW USA_R34_NW USA_R50_NE USA_R50_SE USA_R50_SW USA_R50_NW USA_R64_NE USA_R64_SE USA_R64_SW USA_R64_NW USA_POCI USA_ROCI USA_RMW USA_EYE TOKYO_LAT TOKYO_LON TOKYO_GRADE TOKYO_WIND TOKYO_PRES TOKYO_R50_DIR TOKYO_R50_LONG TOKYO_R50_SHORT TOKYO_R30_DIR TOKYO_R30_LONG TOKYO_R30_SHORT TOKYO_LAND CMA_LAT CMA_LON CMA_CAT CMA_WIND CMA_PRES HKO_LAT HKO_LON HKO_CAT HKO_WIND HKO_PRES NEWDELHI_LAT NEWDELHI_LON NEWDELHI_GRADE NEWDELHI_WIND NEWDELHI_PRES NEWDELHI_CI NEWDELHI_DP NEWDELHI_POCI REUNION_LAT REUNION_LON REUNION_TYPE REUNION_WIND REUNION_PRES REUNION_TNUM REUNION_CI REUNION_RMW REUNION_R34_NE REUNION_R34_SE REUNION_R34_SW REUNION_R34_NW REUNION_R50_NE REUNION_R50_SE REUNION_R50_SW REUNION_R50_NW REUNION_R64_NE REUNION_R64_SE REUNION_R64_SW REUNION_R64_NW BOM_LAT BOM_LON BOM_TYPE BOM_WIND BOM_PRES BOM_TNUM BOM_CI BOM_RMW BOM_R34_NE BOM_R34_SE BOM_R34_SW BOM_R34_NW BOM_R50_NE BOM_R50_SE BOM_R50_SW BOM_R50_NW BOM_R64_NE BOM_R64_SE BOM_R64_SW BOM_R64_NW BOM_ROCI BOM_POCI BOM_EYE BOM_POS_METHOD BOM_PRES_METHOD NADI_LAT NADI_LON NADI_CAT NADI_WIND NADI_PRES WELLINGTON_LAT WELLINGTON_LON WELLINGTON_WIND WELLINGTON_PRES DS824_LAT DS824_LON DS824_STAGE DS824_WIND DS824_PRES TD9636_LAT TD9636_LON TD9636_STAGE TD9636_WIND TD9636_PRES TD9635_LAT TD9635_LON TD9635_WIND TD9635_PRES TD9635_ROCI NEUMANN_LAT NEUMANN_LON NEUMANN_CLASS NEUMANN_WIND NEUMANN_PRES MLC_LAT MLC_LON MLC_CLASS MLC_WIND MLC_PRES USA_GUST BOM_GUST BOM_GUST_PER REUNION_GUST REUNION_GUST_PER USA_SEAHGT USA_SEARAD_NE USA_SEARAD_SE USA_SEARAD_SW USA_SEARAD_NW STORM_SPEED STORM_DIR
1995340S10116 1996 95 SI WA FRANK 1995-12-06 00:00:00 TS -10.3000 115.800 main 158 155 O___________O_ jtwc_sh SH031996 -10.3000 115.800 15 -1 -10.3000 115.800 TC 15 8 117
1995340S10116 1996 95 SI WA FRANK 1995-12-06 03:00:00 TS -10.4875 116.183 main 169 168 P___________P_ SH031996 -10.4875 116.183 17 -1 -10.4875 116.183 TC 17 9 112
1995340S10116 1996 95 SI WA FRANK 1995-12-06 04:00:00 TS -10.5323 116.385 20 1005 bom main 168 168 P_____O_____P_ SH031996 -10.5543 116.316 18 -1 -10.4000 116.800 20 20 1005 1.00000 134 3 5 -10.5543 116.316 TC 18 10 109
1995340S10116 1996 95 SI WA FRANK 1995-12-06 06:00:00 TS -10.6514 116.665 main 182 180 O_____P_____O_ jtwc_sh SH031996 -10.7000 116.600 20 -1 -10.4568 116.923 20 20 1003 134 -10.7000 116.600 TC 20 9 112
1995340S10116 1996 95 SI WA FRANK 1995-12-06 07:00:00 TS -10.7038 116.820 20 1003 bom main 180 179 P_____O_____P_ SH031996 -10.7803 116.752 20 -1 -10.5000 117.000 20 20 1003 1.00000 134 3 5 -10.7803 116.752 TC 20 10 114
1995340S10116 1996 95 SI WA FRANK 1995-12-06 09:00:00 TS -10.8427 117.108 main 190 190 P_____P_____P_ SH031996 -10.9501 117.065 20 -1 -10.6279 117.195 20 23 1002 151 -10.9501 117.065 TC 20 9 118
1995340S10116 1996 95 SI WA FRANK 1995-12-06 10:00:00 TS -10.9239 117.245 25 1002 bom main 201 202 P_____O_____P_ SH031996 -11.0358 117.218 20 -1 -10.7000 117.300 20 25 1002 1.50000 161 3 5 -11.0358 117.218 TC 20 9 121
1995340S10116 1996 95 SI WA FRANK 1995-12-06 12:00:00 TS -11.0778 117.500 main 228 227 O_____P_____O_ jtwc_sh SH031996 -11.2000 117.500 20 -1 -10.8333 117.500 20 25 1002 161 -11.2000 117.500 TC 20 9 122
1995340S10116 1996 95 SI WA FRANK 1995-12-06 13:00:00 TS -11.1482 117.615 25 1002 bom main 227 220 P_____O_____P_ SH031996 -11.2723 117.622 20 -1 -10.9000 117.600 20 25 1002 1.50000 161 3 5 -11.2723 117.622 TC 20 8 122
1995340S10116 1996 95 SI WA FRANK 1995-12-06 15:00:00 TS -11.2827 117.828 main 228 222 P_____P_____P_ SH031996 -11.4074 117.838 22 -1 -11.0333 117.808 20 25 1000 161 -11.4074 117.838 TC 22 7 123
1995340S10116 1996 95 SI WA FRANK 1995-12-06 16:00:00 TS -11.3480 117.921 25 1000 bom main 222 225 P_____O_____P_ SH031996 -11.4720 117.932 23 -1 -11.1000 117.900 20 25 1000 2.00000 161 3 5 -11.4720 117.932 TC 23 6 129
1995340S10116 1996 95 SI WA FRANK 1995-12-06 18:00:00 TS -11.4778 118.074 main 229 224 O_____P_____O_ jtwc_sh SH031996 -11.6000 118.100 25 -1 -11.2333 118.023 20 28 998 161 -11.6000 118.100 TC 25 6 130
1995340S10116 1996 95 SI WA FRANK 1995-12-06 19:00:00 TS -11.5427 118.159 30 998 bom main 224 230 P_____O_____P_ SH031996 -11.6640 118.189 25 -1 -11.3000 118.100 20 30 998 2.00000 161 3 5 -11.6640 118.189 TC 25 7 125
1995340S10116 1996 95 SI WA FRANK 1995-12-06 21:00:00 TS -11.6701 118.354 main 236 236 P_____P_____P_ SH031996 -11.7925 118.345 25 -1 -11.4255 118.372 20 30 996 178 -11.7925 118.345 TC 25 7 126
1995340S10116 1996 95 SI WA FRANK 1995-12-06 22:00:00 TS -11.7392 118.439 30 996 bom main 236 244 P_____O_____P_ SH031996 -11.8588 118.409 25 -1 -11.5000 118.500 20 30 996 2.00000 188 3 5 -11.8588 118.409 TC 25 6 139
1995340S10116 1996 95 SI WA FRANK 1995-12-07 00:00:00 TS -11.8929 118.551 main 250 250 O_____P_____O_ jtwc_sh SH031996 -12.0000 118.500 25 -1 -11.6788 118.652 20 30 996 188 -12.0000 118.500 TC 25 6 150
1995340S10116 1996 95 SI WA FRANK 1995-12-07 01:00:00 TS -11.9851 118.585 30 996 bom main 261 261 P_____O_____P_ SH031996 -12.0776 118.528 25 -1 -11.8000 118.700 20 30 996 2.00000 188 3 5 -12.0776 118.528 TC 25 7 168
1995340S10116 1996 95 SI WA FRANK 1995-12-07 03:00:00 TS -12.2077 118.623 main 282 282 P_____P_____P_ SH031996 -12.2425 118.545 27 -1 -12.1383 118.780 20 33 995 188 -12.2425 118.545 TC 27 7 173
1995340S10116 1996 95 SI WA FRANK 1995-12-07 04:00:00 TS -12.3186 118.625 35 995 bom main 292 292 P_____O_____P_ SH031996 -12.3279 118.538 28 -1 -12.3000 118.800 30 35 995 3.00000 188 3 5 -12.3279 118.538 TC 28 6 182
1995340S10116 1996 95 SI WA FRANK 1995-12-07 06:00:00 TS -12.5036 118.604 main 311 311 O_____P_____O_ jtwc_sh SH031996 -12.5000 118.500 30 -1 -12.5109 118.813 30 35 995 188 -12.5000 118.500 TC 30 5 190
1995340S10116 1996 95 SI WA FRANK 1995-12-07 07:00:00 TS -12.5889 118.587 35 995 bom main 320 320 P_____O_____P_ SH031996 -12.5833 118.481 30 -1 -12.6000 118.800 30 35 995 3.00000 188 3 5 -12.5833 118.481 TC 30 6 196
1995340S10116 1996 95 SI WA FRANK 1995-12-07 09:00:00 TS -12.7693 118.528 main 345 345 P_____P_____P_ SH031996 -12.7500 118.423 32 -1 -12.8079 118.739 30 35 995 188 -12.7500 118.423 TC 32 6 199
1995340S10116 1996 95 SI WA FRANK 1995-12-07 10:00:00 TS -12.8556 118.490 35 995 bom main 354 354 P_____O_____P_ SH031996 -12.8333 118.385 33 -1 -12.9000 118.700 30 35 995 3.00000 188 3 5 -12.8333 118.385 TC 33 5 205
1995340S10116 1996 95 SI WA FRANK 1995-12-07 12:00:00 TS -13.0103 118.414 main 369 369 O_____P_____O_ jtwc_sh SH031996 -13.0000 118.300 35 0 -13.0309 118.641 30 38 991 188 -13.0000 118.300 TC 35 5 207
1995340S10116 1996 95 SI WA FRANK 1995-12-07 13:00:00 TS -13.0889 118.370 40 990 bom main 379 379 P_____O_____P_ SH031996 -13.0833 118.256 35 0 -13.1000 118.600 30 40 990 3.00000 188 3 5 -13.0833 118.256 TC 35 6 210
1995340S10116 1996 95 SI WA FRANK 1995-12-07 15:00:00 TS -13.2675 118.262 main 404 404 P_____P_____P_ SH031996 -13.2500 118.158 35 0 -13.3025 118.472 30 40 990 188 -13.2500 118.158 TC 35 6 211
1995340S10116 1996 95 SI WA FRANK 1995-12-07 16:00:00 TS -13.3556 118.204 40 990 bom main 419 419 P_____O_____P_ SH031996 -13.3333 118.105 35 0 -13.4000 118.400 30 40 990 3.00000 188 3 5 -13.3333 118.105 TC 35 6 214
1995340S10116 1996 95 SI WA FRANK 1995-12-07 18:00:00 TS -13.5129 118.092 main 434 434 O_____P_____O_ jtwc_sh SH031996 -13.5000 118.000 35 0 -13.5388 118.275 30 40 990 188 -13.5000 118.000 TC 35 6 216
1995340S10116 1996 95 SI WA FRANK 1995-12-07 19:00:00 TS -13.5889 118.033 40 990 bom main 449 449 P_____O_____P_ SH031996 -13.5833 117.950 36 0 -13.6000 118.200 30 40 990 3.00000 188 3 5 -13.5833 117.950 TC 36 6 219
1995340S10116 1996 95 SI WA FRANK 1995-12-07 21:00:00 TS -13.7418 117.899 main 465 465 P_____P_____P_ SH031996 -13.7500 117.850 40 0 -13.7254 117.998 30 43 986 188 -13.7500 117.850 TC 40 6 220
1995340S10116 1996 95 SI WA FRANK 1995-12-07 22:00:00 TS -13.8222 117.833 45 985 bom main 480 480 P_____O_____P_ SH031996 -13.8333 117.800 41 0 -13.8000 117.900 30 45 985 3.00000 188 3 5 -13.8333 117.800 TC 41 6 214
1995340S10116 1996 95 SI WA FRANK 1995-12-08 00:00:00 TS -14.0008 117.720 main 505 505 O_____P_____O_ jtwc_sh SH031996 -14.0000 117.700 45 0 -14.0025 117.761 30 45 985 188 -14.0000 117.700 TC 45 6 212
1995340S10116 1996 95 SI WA FRANK 1995-12-08 01:00:00 TS -14.0871 117.667 45 985 bom main 514 514 P_____O_____P_ SH031996 -14.0807 117.650 45 0 -14.1000 117.700 30 45 985 3.00000 188 3 5 -14.0807 117.650 TC 45 6 214
1995340S10116 1996 95 SI WA FRANK 1995-12-08 03:00:00 TS -14.2360 117.556 main 529 529 P_____P_____P_ SH031996 -14.2425 117.550 45 0 -14.2230 117.567 30 45 985 205 -14.2425 117.550 TC 45 6 216
1995340S10116 1996 95 SI WA FRANK 1995-12-08 04:00:00 TS -14.3169 117.500 45 985 bom main 543 543 P_____O_____P_ SH031996 -14.3254 117.500 45 0 -14.3000 117.500 30 45 985 3.00000 215 3 5 -14.3254 117.500 TC 45 7 209
1995340S10116 1996 95 SI WA FRANK 1995-12-08 06:00:00 TS -14.5186 117.392 main 568 568 O_____P_____O_ jtwc_sh SH031996 -14.5000 117.400 45 0 -14.5558 117.375 30 51 981 215 -14.5000 117.400 TC 45 7 207
1995340S10116 1996 95 SI WA FRANK 1995-12-08 07:00:00 TS -14.6278 117.335 55 980 bom main 582 582 P_____O_____P_ SH031996 -14.5917 117.353 45 0 -14.7000 117.300 30 55 980 4.00000 215 3 5 -14.5917 117.353 TC 45 8 209
1995340S10116 1996 95 SI WA FRANK 1995-12-08 09:00:00 TS -14.8482 117.204 main 603 598 P_____P_____P_ SH031996 -14.7850 117.257 47 0 -14.9746 117.098 30 55 980 232 -14.7850 117.257 TC 47 8 210
1995340S10116 1996 95 SI WA FRANK 1995-12-08 10:00:00 TS -14.9578 117.139 55 980 bom main 602 591 P_____O_____P_ SH031996 -14.8866 117.208 48 0 -15.1000 117.000 30 55 980 4.00000 242 3 5 -14.8866 117.208 TC 48 7 209
1995340S10116 1996 95 SI WA FRANK 1995-12-08 12:00:00 TS -15.1711 117.020 main 591 581 O_____P_____O_ jtwc_sh SH031996 -15.1000 117.100 50 0 -15.3133 116.861 30 58 976 242 -15.1000 117.100 TC 50 7 209
1995340S10116 1996 95 SI WA FRANK 1995-12-08 13:00:00 TS -15.2722 116.959 60 975 bom main 581 565 P_____O_____P_ SH031996 -15.2083 117.039 50 0 -15.4000 116.800 30 60 975 4.00000 242 3 5 -15.2083 117.039 TC 50 7 212
1995340S10116 1996 95 SI WA FRANK 1995-12-08 15:00:00 TS -15.4670 116.827 main 565 554 P_____P_____P_ SH031996 -15.4350 116.907 52 0 -15.5309 116.667 30 60 975 242 -15.4350 116.907 TC 52 7 213
1995340S10116 1996 95 SI WA FRANK 1995-12-08 16:00:00 TS -15.5689 116.759 60 975 bom main 554 537 P_____O_____P_ SH031996 -15.5533 116.839 53 0 -15.6000 116.600 30 60 975 4.00000 242 3 5 -15.5533 116.839 TC 53 8 211
1995340S10116 1996 95 SI WA FRANK 1995-12-08 18:00:00 TS -15.7982 116.622 main 537 525 O_____P_____O_ jtwc_sh SH031996 -15.8000 116.700 55 0 -15.7946 116.467 30 63 971 242 -15.8000 116.700 TC 55 8 209
1995340S10116 1996 95 SI WA FRANK 1995-12-08 19:00:00 TS -15.9184 116.554 65 970 bom main 525 503 P_____O_____P_ SH031996 -15.9276 116.631 56 0 -15.9000 116.400 40 65 970 4.50000 242 3 5 -15.9276 116.631 TC 56 8 208
1995340S10116 1996 95 SI WA FRANK 1995-12-08 21:00:00 TS -16.1617 116.417 main 493 482 P_____P_____P_ SH031996 -16.1925 116.492 60 0 -16.1000 116.267 40 68 966 242 -16.1925 116.492 TC 60 8 208
1995340S10116 1996 95 SI WA FRANK 1995-12-08 22:00:00 TS -16.2853 116.350 70 965 bom main 482 460 P_____O_____P_ SH031996 -16.3279 116.425 61 0 -16.2000 116.200 40 70 965 4.50000 242 3 5 -16.3279 116.425 TC 61 8 207
1995340S10116 1996 95 SI WA FRANK 1995-12-09 00:00:00 TS -16.5281 116.225 main 461 439 O_____P_____O_ jtwc_sh SH031996 -16.6000 116.300 65 1 -16.3842 116.075 40 70 965 242 -16.6000 116.300 TC 65 8 206
1995340S10116 1996 95 SI WA FRANK 1995-12-09 01:00:00 TS -16.6590 116.161 70 965 bom main 439 418 P_____O_____P_ SH031996 -16.7386 116.242 66 1 -16.5000 116.000 40 70 965 4.50000 242 3 5 -16.7386 116.242 TC 66 9 205
1995340S10116 1996 95 SI WA FRANK 1995-12-09 03:00:00 TS -16.9561 116.017 main 409 398 P_____P_____P_ SH031996 -17.0150 116.135 70 1 -16.8383 115.782 40 70 965 242 -17.0150 116.135 TC 70 10 204
1995340S10116 1996 95 SI WA FRANK 1995-12-09 04:00:00 TS -17.0994 115.958 70 965 bom main 398 378 P_____O_____P_ SH031996 -17.1491 116.087 71 1 -17.0000 115.700 40 70 965 4.50000 242 4 5 -17.1491 116.087 TC 71 8 196
1995340S10116 1996 95 SI WA FRANK 1995-12-09 06:00:00 TS -17.3343 115.897 main 378 367 O_____P_____O_ jtwc_sh SH031996 -17.4000 116.000 75 1 -17.2029 115.692 40 73 961 242 -17.4000 116.000 TC 75 7 194
1995340S10116 1996 95 SI WA FRANK 1995-12-09 07:00:00 TS -17.4392 115.876 75 960 bom main 367 348 P_____O_____P_ SH031996 -17.5088 115.964 75 1 -17.3000 115.700 40 75 960 4.50000 242 4 5 -17.5088 115.964 TC 75 7 193
1995340S10116 1996 95 SI WA FRANK 1995-12-09 09:00:00 TS -17.6587 115.815 main 337 327 P_____P_____P_ SH031996 -17.7075 115.900 75 1 -17.5612 115.647 40 75 956 242 -17.7075 115.900 TC 75 7 195
1995340S10116 1996 95 SI WA FRANK 1995-12-09 10:00:00 TS -17.7686 115.779 75 955 bom main 327 309 P_____O_____P_ SH031996 -17.8029 115.869 75 1 -17.7000 115.600 40 75 955 4.50000 242 4 5 -17.8029 115.869 TC 75 7 200
1995340S10116 1996 95 SI WA FRANK 1995-12-09 12:00:00 TS -17.9915 115.688 main 309 298 O_____P_____O_ jtwc_sh SH031996 -18.0000 115.800 75 1 -17.9746 115.464 40 75 955 259 -18.0000 115.800 TC 75 7 201
1995340S10116 1996 95 SI WA FRANK 1995-12-09 13:00:00 TS -18.1091 115.639 75 955 bom main 302 281 P_____O_____P_ SH031996 -18.1136 115.758 75 1 -18.1000 115.400 40 75 955 4.50000 269 4 5 -18.1136 115.758 TC 75 7 201
1995340S10116 1996 95 SI WA FRANK 1995-12-09 15:00:00 TS -18.3378 115.553 main 281 276 P_____P_____P_ SH031996 -18.3500 115.665 75 1 -18.3133 115.328 40 78 955 269 -18.3500 115.665 TC 75 7 201
1995340S10116 1996 95 SI WA FRANK 1995-12-09 16:00:00 TS -18.4461 115.509 80 955 bom main 276 256 P_____O_____P_ SH031996 -18.4691 115.613 75 1 -18.4000 115.300 40 80 955 5.00000 269 4 5 -18.4691 115.613 TC 75 7 204
1995340S10116 1996 95 SI WA FRANK 1995-12-09 18:00:00 TS -18.6436 115.411 main 261 252 O_____P_____O_ jtwc_sh SH031996 -18.7000 115.500 75 1 -18.5309 115.233 40 83 955 269 -18.7000 115.500 TC 75 7 206
1995340S10116 1996 95 SI WA FRANK 1995-12-09 19:00:00 TS -18.7371 115.358 85 955 bom main 252 240 P_____O_____P_ SH031996 -18.8057 115.436 77 1 -18.6000 115.200 40 85 955 5.00000 269 22 4 5 -18.8057 115.436 TC 77 7 208
1995340S10116 1996 95 SI WA FRANK 1995-12-09 21:00:00 TS -18.9339 115.247 main 246 236 P_____P_____P_ SH031996 -19.0075 115.300 82 1 -18.7867 115.141 40 88 951 269 -19.0075 115.300 TC 82 7 208
1995340S10116 1996 95 SI WA FRANK 1995-12-09 22:00:00 TS -19.0370 115.187 90 950 bom main 236 222 P_____O_____P_ SH031996 -19.1054 115.231 85 2 -18.9000 115.100 40 90 950 5.50000 269 22 6 5 -19.1054 115.231 TC 85 7 209
1995340S10116 1996 95 SI WA FRANK 1995-12-10 00:00:00 TS -19.2564 115.057 main 212 209 O_____P_____O_ jtwc_sh SH031996 -19.3000 115.100 90 2 -19.1691 114.972 40 90 950 269 -19.3000 115.100 TC 90 8 209
1995340S10116 1996 95 SI WA FRANK 1995-12-10 01:00:00 TS -19.3701 114.996 90 950 bom main 209 197 P_____O_____P_ SH031996 -19.4052 115.044 94 2 -19.3000 114.900 40 90 950 5.50000 269 22 6 5 -19.4052 115.044 TC 94 7 207
1995340S10116 1996 95 SI WA FRANK 1995-12-10 03:00:00 TS -19.5811 114.881 main 197 194 P_____P_____P_ SH031996 -19.6150 114.942 102 3 -19.5133 114.759 40 93 950 269 -19.6150 114.942 TC 102 7 207
1995340S10116 1996 95 SI WA FRANK 1995-12-10 04:00:00 TS -19.6772 114.830 95 950 bom main 194 185 P_____O_____P_ SH031996 -19.7158 114.895 106 3 -19.6000 114.700 40 95 950 5.50000 269 22 6 5 -19.7158 114.895 TC 106 6 206
1995340S10116 1996 95 SI WA FRANK 1995-12-10 06:00:00 TS -19.8463 114.743 main 191 183 O_____P_____O_ jtwc_sh SH031996 -19.9000 114.800 115 4 -19.7388 114.628 40 95 950 269 -19.9000 114.800 TC 115 6 207
1995340S10116 1996 95 SI WA FRANK 1995-12-10 07:00:00 TS -19.9222 114.698 95 950 bom main 183 175 P_____O_____P_ SH031996 -19.9833 114.747 115 4 -19.8000 114.600 40 95 950 5.50000 269 19 6 5 -19.9833 114.747 TC 115 5 209
1995340S10116 1996 95 SI WA FRANK 1995-12-10 09:00:00 TS -20.0671 114.609 main 175 175 P_____P_____P_ SH031996 -20.1300 114.642 115 4 -19.9412 114.541 40 95 953 269 -20.1300 114.642 TC 115 5 212
1995340S10116 1996 95 SI WA FRANK 1995-12-10 10:00:00 TS -20.1289 114.561 95 955 bom main 175 172 P_____O_____P_ SH031996 -20.1933 114.592 115 4 -20.0000 114.500 40 95 955 5.50000 269 19 6 5 -20.1933 114.592 TC 115 4 223
1995340S10116 1996 95 SI WA FRANK 1995-12-10 12:00:00 TS -20.2240 114.455 main 172 164 O_____P_____O_ jtwc_sh SH031996 -20.3000 114.500 115 4 -20.0721 114.364 40 91 958 269 -20.3000 114.500 TC 115 4 226
1995340S10116 1996 95 SI WA FRANK 1995-12-10 13:00:00 TS -20.2614 114.413 90 960 bom main 164 164 P_____O_____P_ SH031996 -20.3421 114.469 115 4 -20.1000 114.300 40 90 960 5.50000 269 19 6 5 -20.3421 114.469 TC 115 3 223
1995340S10116 1996 95 SI WA FRANK 1995-12-10 15:00:00 TS -20.3245 114.350 main 168 158 P_____P_____P_ SH031996 -20.4074 114.415 115 4 -20.1588 114.220 40 86 963 269 -20.4074 114.415 TC 115 3 220
1995340S10116 1996 95 SI WA FRANK 1995-12-10 16:00:00 TS -20.3575 114.323 85 965 bom main 158 158 P_____O_____P_ SH031996 -20.4362 114.385 115 4 -20.2000 114.200 40 85 965 5.00000 269 18 6 5 -20.4362 114.385 TC 115 3 216
1995340S10116 1996 95 SI WA FRANK 1995-12-10 18:00:00 TS -20.4400 114.267 main 158 147 O_____P_____O_ jtwc_sh SH031996 -20.5000 114.300 115 4 -20.3200 114.202 40 81 965 269 -20.5000 114.300 TC 115 3 216
1995340S10116 1996 95 SI WA FRANK 1995-12-10 19:00:00 TS -20.4927 114.219 80 965 bom main 151 140 P_____O_____P_ SH031996 -20.5391 114.229 112 3 -20.4000 114.200 40 80 965 5.00000 269 18 6 5 -20.5391 114.229 TC 112 5 224
1995340S10116 1996 95 SI WA FRANK 1995-12-10 21:00:00 TS -20.6192 114.087 main 143 134 P_____P_____P_ SH031996 -20.6276 114.058 107 3 -20.6025 114.147 40 76 965 251 -20.6276 114.058 TC 107 5 225
1995340S10116 1996 95 SI WA FRANK 1995-12-10 22:00:00 TS -20.6859 114.011 75 965 bom main 134 123 P_____O_____P_ SH031996 -20.6789 113.967 104 3 -20.7000 114.100 40 75 965 4.50000 242 18 6 5 -20.6789 113.967 TC 104 6 228
1995340S10116 1996 95 SI WA FRANK 1995-12-11 00:00:00 TS -20.8129 113.857 main 123 113 O_____P_____O_ jtwc_sh SH031996 -20.8000 113.800 100 3 -20.8388 113.972 40 71 965 242 -20.8000 113.800 TC 100 6 226
1995340S10116 1996 95 SI WA FRANK 1995-12-11 01:00:00 TS -20.8813 113.791 70 965 bom main 113 105 P_____O_____P_ SH031996 -20.8719 113.736 100 3 -20.9000 113.900 40 70 965 4.50000 242 18 6 5 -20.8719 113.736 TC 100 6 218
1995340S10116 1996 95 SI WA FRANK 1995-12-11 03:00:00 TS -21.0318 113.676 main 105 94 P_____P_____P_ SH031996 -21.0350 113.627 100 3 -21.0254 113.775 40 73 965 242 -21.0350 113.627 TC 100 6 214
1995340S10116 1996 95 SI WA FRANK 1995-12-11 04:00:00 TS -21.1150 113.621 75 965 bom main 98 84 P_____O_____P_ SH031996 -21.1224 113.581 100 3 -21.1000 113.700 40 75 965 4.50000 242 18 6 5 -21.1224 113.581 TC 100 6 211
1995340S10116 1996 95 SI WA FRANK 1995-12-11 06:00:00 TS -21.2982 113.499 main 84 76 O_____P_____O_ jtwc_sh SH031996 -21.3000 113.500 100 3 -21.2946 113.498 40 78 965 224 -21.3000 113.500 TC 100 6 211
1995340S10116 1996 95 SI WA FRANK 1995-12-11 07:00:00 TS -21.3871 113.441 80 965 bom main 83 76 P_____O_____P_ SH031996 -21.3807 113.461 100 3 -21.4000 113.400 40 80 965 5.00000 215 15 4 5 -21.3807 113.461 TC 100 6 208
1995340S10116 1996 95 SI WA FRANK 1995-12-11 09:00:00 TS -21.5643 113.349 main 79 75 P_____P_____P_ SH031996 -21.5425 113.392 100 3 -21.6079 113.261 40 80 965 215 -21.5425 113.392 TC 100 6 205
1995340S10116 1996 95 SI WA FRANK 1995-12-11 10:00:00 TS -21.6503 113.307 80 965 bom main 75 75 P_____O_____P_ SH031996 -21.6254 113.361 100 3 -21.7000 113.200 40 80 965 5.00000 215 12 4 5 -21.6254 113.361 TC 100 6 205
1995340S10116 1996 95 SI WA FRANK 1995-12-11 12:00:00 TS -21.8129 113.220 main 79 75 O_____P_____O_ jtwc_sh SH031996 -21.8000 113.300 100 3 -21.8388 113.059 40 73 968 215 -21.8000 113.300 TC 100 6 207
1995340S10116 1996 95 SI WA FRANK 1995-12-11 13:00:00 TS -21.8979 113.176 70 970 bom main 75 70 P_____O_____P_ SH031996 -21.8969 113.264 98 3 -21.9000 113.000 40 70 970 4.50000 215 11 4 5 -21.8969 113.264 TC 98 6 202
1995340S10116 1996 95 SI WA FRANK 1995-12-11 15:00:00 TS -22.0751 113.104 main 75 68 P_____P_____P_ SH031996 -22.1000 113.193 95 2 -22.0254 112.928 40 66 970 215 -22.1000 113.193 TC 95 6 200
1995340S10116 1996 95 SI WA FRANK 1995-12-11 16:00:00 TS -22.1683 113.073 65 970 bom main 68 68 P_____O_____P_ SH031996 -22.2025 113.159 93 2 -22.1000 112.900 40 65 970 4.50000 215 5 4 5 -22.2025 113.159 TC 93 6 198
1995340S10116 1996 95 SI WA FRANK 1995-12-11 18:00:00 TS -22.3649 113.008 main 65 62 O_____P_____O_ jtwc_sh SH031996 -22.4000 113.100 90 2 -22.2946 112.825 40 61 973 215 -22.4000 113.100 TC 90 6 194
1995340S10116 1996 95 SI WA FRANK 1995-12-11 19:00:00 TS -22.4576 112.983 60 975 bom main 62 61 P_____O_____P_ SH031996 -22.4864 113.075 86 2 -22.4000 112.800 30 60 975 4.00000 215 3 5 -22.4864 113.075 TC 86 6 192
1995340S10116 1996 95 SI WA FRANK 1995-12-11 21:00:00 TS -22.6360 112.955 main 61 61 P_____P_____P_ SH031996 -22.6500 113.035 80 1 -22.6079 112.795 30 56 978 215 -22.6500 113.035 TC 80 5 188
1995340S10116 1996 95 SI WA FRANK 1995-12-11 22:00:00 TS -22.7206 112.947 55 980 bom main 72 72 P_____O_____P_ SH031996 -22.7309 113.020 76 1 -22.7000 112.800 30 55 980 4.00000 215 3 5 -22.7309 113.020 TC 76 5 0
1995340S10116 1996 95 SI WA FRANK 1995-12-12 00:00:00 TS -22.8770 112.933 main 79 79 O_____P_____O_ jtwc_sh SH031996 -22.9000 113.000 70 1 -22.8309 112.800 30 51 983 197 -22.9000 113.000 TC 70 5 182
1995340S10116 1996 95 SI WA FRANK 1995-12-12 01:00:00 TS -22.9611 112.926 50 985 bom main 84 84 P_____O_____P_ SH031996 -22.9917 112.989 69 1 -22.9000 112.800 30 50 985 3.50000 188 3 5 -22.9917 112.989 TC 69 6 0
1995340S10116 1996 95 SI WA FRANK 1995-12-12 03:00:00 TS -23.1522 112.916 main 91 90 P_____P_____P_ SH031996 -23.1850 112.978 67 1 -23.0867 112.792 30 50 985 188 -23.1850 112.978 TC 67 6 0
1995340S10116 1996 95 SI WA FRANK 1995-12-12 04:00:00 TS -23.2578 112.919 50 985 bom main 90 75 P_____O_____P_ SH031996 -23.2867 112.979 66 1 -23.2000 112.800 30 50 985 3.50000 188 3 5 -23.2867 112.979 TC 66 7 172
1995340S10116 1996 95 SI WA FRANK 1995-12-12 06:00:00 TS -23.4871 112.951 main 67 60 O_____P_____O_ jtwc_sh SH031996 -23.5000 113.000 65 1 -23.4612 112.853 30 46 988 188 -23.5000 113.000 TC 65 7 171
1995340S10116 1996 95 SI WA FRANK 1995-12-12 07:00:00 TS -23.6056 112.980 45 990 bom main 60 42 P_____O_____P_ SH031996 -23.6083 113.019 64 1 -23.6000 112.900 30 45 990 3.00000 188 3 5 -23.6083 113.019 TC 64 7 165
1995340S10116 1996 95 SI WA FRANK 1995-12-12 09:00:00 TS -23.8429 113.061 main 42 40 P_____P_____P_ SH031996 -23.8350 113.078 62 0 -23.8588 113.028 30 41 990 188 -23.8350 113.078 TC 62 8 162
1995340S10116 1996 95 SI WA FRANK 1995-12-12 10:00:00 TS -23.9689 113.110 40 990 bom main 40 30 P_____O_____P_ SH031996 -23.9533 113.115 61 0 -24.0000 113.100 30 40 990 3.00000 188 3 5 -23.9533 113.115 TC 61 9 161
1995340S10116 1996 95 SI WA FRANK 1995-12-12 12:00:00 TS -24.2453 113.208 main 30 10 O_____P_____O_ jtwc_sh SH031996 -24.2000 113.200 60 0 -24.3358 113.225 30 36 993 188 -24.2000 113.200 TC 60 9 162
1995340S10116 1996 95 SI WA FRANK 1995-12-12 13:00:00 TS -24.3833 113.256 35 995 bom main 10 10 P_____O_____P_ SH031996 -24.3250 113.234 59 0 -24.5000 113.300 30 35 995 3.00000 188 3 5 -24.3250 113.234 TC 59 9 159
1995340S10116 1996 95 SI WA FRANK 1995-12-12 15:00:00 TS -24.6447 113.376 main 15 15 P_____P_____P_ SH031996 -24.5849 113.313 57 0 -24.7642 113.502 30 35 995 188 -24.5849 113.313 TC 57 9 157
1995340S10116 1996 95 SI WA FRANK 1995-12-12 16:00:00 TS -24.7799 113.442 35 995 bom main 23 10 P_____O_____P_ SH031996 -24.7199 113.363 56 0 -24.9000 113.600 30 35 995 3.00000 188 3 4 -24.7199 113.363 TC 56 9 157
1995340S10116 1996 95 SI WA FRANK 1995-12-12 18:00:00 TS -25.0786 113.577 main 10 10 O_____P_____O_ jtwc_sh SH031996 -25.0000 113.500 55 0 -25.2358 113.731 30 31 996 188 -25.0000 113.500 TC 55 10 157
1995340S10116 1996 95 SI WA FRANK 1995-12-12 19:00:00 TS -25.2294 113.652 30 998 bom main 10 15 P_____O_____P_ SH031996 -25.1442 113.578 51 0 -25.4000 113.800 20 30 998 2.50000 188 3 5 -25.1442 113.578 TC 51 10 151
1995340S10116 1996 95 SI WA FRANK 1995-12-12 21:00:00 TS -25.5188 113.848 main 20 10 P_____P_____P_ SH031996 -25.4422 113.775 45 0 -25.6721 113.995 20 30 998 170 -25.4422 113.775 TC 45 10 147
1995340S10116 1996 95 SI WA FRANK 1995-12-12 22:00:00 TS -25.6628 113.965 30 998 bom main 15 9 P_____O_____P_ SH031996 -25.5942 113.898 41 0 -25.8000 114.100 20 30 998 2.50000 161 3 5 -25.5942 113.898 TC 41 11 142
1995340S10116 1996 95 SI WA FRANK 1995-12-13 00:00:00 TS -25.9538 114.229 main 9 0 O_____P_____O_ jtwc_sh SH031996 -25.9000 114.200 35 0 -26.0614 114.287 20 26 999 143 -25.9000 114.200 TC 35 12 140
1995340S10116 1996 95 SI WA FRANK 1995-12-13 01:00:00 TS -26.1051 114.378 25 1000 bom main 0 0 P_____O_____P_ SH031996 -26.0577 114.367 34 0 -26.2000 114.400 20 25 1000 2.00000 134 3 5 -26.0577 114.367 TC 34 13 135
1995340S10116 1996 95 SI WA FRANK 1995-12-13 03:00:00 TS -26.4091 114.744 main 0 0 P_____P_____P_ SH031996 -26.3720 114.760 32 -1 -26.5081 114.701 20 25 1000 134 -26.3720 114.760 TC 32 15 127
1995340S10116 1996 95 SI WA FRANK 1995-12-13 06:00:00 TS -26.8445 115.457 main 0 0 O_____P_____O_ jtwc_sh SH031996 -26.8000 115.500 30 -1 -27.0226 115.287 20 25 1000 134 -26.8000 115.500 TC 30 16 121
1995340S10116 1996 95 SI WA FRANK 1995-12-13 07:00:00 TS -26.9486 115.749 25 1000 bom main 0 0 P_____O_____P_ SH031996 -26.9172 115.780 30 -1 -27.2000 115.500 80 25 1000 134 3 5 -26.9172 115.780 TC 30 18 108
1995340S10116 1996 95 SI WA FRANK 1995-12-13 09:00:00 TS -27.1225 116.398 main 0 0 P___________P_ SH031996 -27.1225 116.398 30 -1 80 -27.1225 116.398 TC 30 18 107
1995340S10116 1996 95 SI WA FRANK 1995-12-13 12:00:00 TS -27.4000 117.400 main 0 0 O___________O_ jtwc_sh SH031996 -27.4000 117.400 30 -1 80 -27.4000 117.400 TC 30 19 108
1995340S10116 1996 95 SI WA FRANK 1995-12-13 15:00:00 TS -27.6994 118.393 main 0 0 P___________P_ SH031996 -27.6994 118.393 27 -1 -27.6994 118.393 TC 27 19 109
1995340S10116 1996 95 SI WA FRANK 1995-12-13 18:00:00 TS -28.0000 119.400 main 0 0 O___________O_ jtwc_sh SH031996 -28.0000 119.400 25 -1 -28.0000 119.400 TC 25 19 109
1995340S10116 1996 95 SI WA FRANK 1995-12-13 21:00:00 TS -28.3014 120.401 main 0 0 P___________P_ SH031996 -28.3014 120.401 20 -1 -28.3014 120.401 TC 20 19 109
1995340S10116 1996 95 SI WA FRANK 1995-12-14 00:00:00 TS -28.6000 121.400 main 0 O___________O_ jtwc_sh SH031996 -28.6000 121.400 15 -1 -28.6000 121.400 TC 15 19 109

About IBTrACS Database

This database is a web-friendly format of International Best Track Archive for Climate Stewardship (IBTrACS), a global best track data archive curated by NOAA dating back to 1842.

Updated: 2021-10-25